Time,TemperatureF,DewpointF,PressureIn,WindDirection,WindDirectionDegrees,WindSpeedMPH,WindSpeedGustMPH,Humidity,HourlyPrecipIn,Conditions,Clouds,dailyrainin,SoftwareType,DateUTC
2013-02-20 00:00:00,12.8,8.4,29.84,NNW,342,8.0,9.0,82,0.00,,,0.15,VWS V14.01,2013-02-20 05:00:00,
2013-02-20 00:01:00,12.9,8.4,29.84,NNW,343,12.0,12.0,82,0.00,,,0.00,VWS V14.01,2013-02-20 05:01:00,
2013-02-20 00:06:00,12.8,8.4,29.84,North,357,9.0,11.0,82,0.00,,,0.00,VWS V14.01,2013-02-20 05:06:00,
2013-02-20 00:11:00,12.8,8.4,29.85,NW,319,10.0,10.0,82,0.00,,,0.00,VWS V14.01,2013-02-20 05:11:00,
2013-02-20 00:16:00,12.7,8.3,29.85,North,357,19.0,19.0,82,0.00,,,0.00,VWS V14.01,2013-02-20 05:16:00,
2013-02-20 00:21:00,12.6,8.2,29.85,NW,313,10.0,14.0,82,0.00,,,0.00,VWS V14.01,2013-02-20 05:21:00,
2013-02-20 00:26:00,12.6,8.2,29.85,NNW,332,15.0,15.0,82,0.00,,,0.00,VWS V14.01,2013-02-20 05:26:00,
2013-02-20 00:31:00,12.5,8.3,29.85,NNW,345,4.0,11.0,83,0.00,,,0.00,VWS V14.01,2013-02-20 05:31:00,
2013-02-20 00:36:00,12.5,8.1,29.86,NNW,331,12.0,16.0,82,0.00,,,0.00,VWS V14.01,2013-02-20 05:36:00,
2013-02-20 00:41:00,12.4,8.0,29.86,North,351,10.0,14.0,82,0.00,,,0.00,VWS V14.01,2013-02-20 05:41:00,
2013-02-20 00:46:00,12.3,8.1,29.87,NNW,335,8.0,11.0,83,0.00,,,0.00,VWS V14.01,2013-02-20 05:46:00,
2013-02-20 00:51:00,12.3,8.1,29.87,NNW,346,7.0,16.0,83,0.00,,,0.00,VWS V14.01,2013-02-20 05:51:00,
2013-02-20 00:56:00,12.2,8.3,29.87,NW,305,9.0,16.0,84,0.00,,,0.00,VWS V14.01,2013-02-20 05:56:00,
2013-02-20 01:01:00,12.2,8.3,29.87,NNW,347,12.0,14.0,84,0.00,,,0.00,VWS V14.01,2013-02-20 06:01:00,
2013-02-20 01:06:00,12.1,8.2,29.88,North,357,12.0,12.0,84,0.00,,,0.00,VWS V14.01,2013-02-20 06:06:00,
2013-02-20 01:11:00,12.1,8.2,29.88,NNW,345,7.0,11.0,84,0.00,,,0.00,VWS V14.01,2013-02-20 06:11:00,
2013-02-20 01:16:00,12.1,8.2,29.88,NNW,333,5.0,8.0,84,0.00,,,0.00,VWS V14.01,2013-02-20 06:16:00,
2013-02-20 01:21:00,12.1,8.2,29.88,NW,314,14.0,14.0,84,0.00,,,0.00,VWS V14.01,2013-02-20 06:21:00,
2013-02-20 01:26:00,12.0,8.1,29.88,NW,318,13.0,14.0,84,0.00,,,0.00,VWS V14.01,2013-02-20 06:26:00,
2013-02-20 01:31:00,11.9,8.0,29.89,NW,323,9.0,15.0,84,0.00,,,0.00,VWS V14.01,2013-02-20 06:31:00,
2013-02-20 01:36:00,11.9,8.0,29.89,NNW,335,14.0,17.0,84,0.00,,,0.00,VWS V14.01,2013-02-20 06:36:00,
2013-02-20 01:41:00,11.8,7.6,29.89,NNE,19,6.0,14.0,83,0.00,,,0.00,VWS V14.01,2013-02-20 06:41:00,
2013-02-20 01:46:00,11.8,7.6,29.89,North,357,7.0,15.0,83,0.00,,,0.00,VWS V14.01,2013-02-20 06:46:00,
2013-02-20 01:51:00,11.8,7.6,29.90,NNW,347,7.0,11.0,83,0.00,,,0.00,VWS V14.01,2013-02-20 06:51:00,
2013-02-20 01:56:00,11.7,7.6,29.90,NNW,340,9.0,12.0,83,0.00,,,0.00,VWS V14.01,2013-02-20 06:56:00,
2013-02-20 02:01:00,11.7,7.6,29.90,NW,325,10.0,10.0,83,0.00,,,0.00,VWS V14.01,2013-02-20 07:01:00,
2013-02-20 02:06:00,11.6,7.2,29.90,NW,321,11.0,13.0,82,0.00,,,0.00,VWS V14.01,2013-02-20 07:06:00,
2013-02-20 02:11:00,11.6,7.2,29.91,NNW,348,6.0,11.0,82,0.00,,,0.00,VWS V14.01,2013-02-20 07:11:00,
2013-02-20 02:16:00,11.6,7.2,29.91,NW,322,5.0,7.0,82,0.00,,,0.00,VWS V14.01,2013-02-20 07:16:00,
2013-02-20 02:21:00,11.5,6.8,29.91,North,357,6.0,12.0,81,0.00,,,0.00,VWS V14.01,2013-02-20 07:21:00,
2013-02-20 02:26:00,11.5,6.8,29.92,NNW,348,11.0,16.0,81,0.00,,,0.00,VWS V14.01,2013-02-20 07:26:00,
2013-02-20 02:31:00,11.4,6.7,29.92,NW,325,6.0,13.0,81,0.00,,,0.00,VWS V14.01,2013-02-20 07:31:00,
2013-02-20 02:36:00,11.4,6.4,29.92,North,7,8.0,17.0,80,0.00,,,0.00,VWS V14.01,2013-02-20 07:36:00,
2013-02-20 02:41:00,11.4,6.7,29.92,NNW,327,10.0,12.0,81,0.00,,,0.00,VWS V14.01,2013-02-20 07:41:00,
2013-02-20 02:46:00,11.3,6.6,29.92,North,352,6.0,7.0,81,0.00,,,0.00,VWS V14.01,2013-02-20 07:46:00,
2013-02-20 02:51:00,11.3,6.3,29.93,NNW,335,7.0,15.0,80,0.00,,,0.00,VWS V14.01,2013-02-20 07:51:00,
2013-02-20 02:56:00,11.2,6.2,29.93,North,349,14.0,16.0,80,0.00,,,0.00,VWS V14.01,2013-02-20 07:56:00,
2013-02-20 03:05:00,11.1,6.2,29.93,North,357,9.0,12.0,80,0.00,,,0.00,VWS V14.01,2013-02-20 08:05:00,
2013-02-20 03:10:00,11.0,6.1,29.94,NNW,340,7.0,10.0,80,0.00,,OVC065,0.00,VWS V14.01,2013-02-20 08:10:00,
2013-02-20 03:15:00,11.0,6.1,29.94,NNW,328,9.0,9.0,80,0.00,,OVC065,0.00,VWS V14.01,2013-02-20 08:15:00,
2013-02-20 03:20:00,10.9,5.9,29.94,NNW,329,6.0,12.0,80,0.00,,OVC065,0.00,VWS V14.01,2013-02-20 08:20:00,
2013-02-20 03:25:00,10.8,5.9,29.94,North,357,9.0,11.0,80,0.00,,OVC065,0.00,VWS V14.01,2013-02-20 08:25:00,
2013-02-20 03:30:00,10.8,5.9,29.94,NNW,332,6.0,7.0,80,0.00,,OVC065,0.00,VWS V14.01,2013-02-20 08:30:00,
2013-02-20 03:35:00,10.8,6.1,29.94,North,352,11.0,14.0,81,0.00,,OVC065,0.00,VWS V14.01,2013-02-20 08:35:00,
2013-02-20 03:40:00,10.8,6.1,29.95,NNW,339,8.0,8.0,81,0.00,,OVC065,0.00,VWS V14.01,2013-02-20 08:40:00,
2013-02-20 03:45:00,10.9,6.2,29.95,NNW,340,5.0,8.0,81,0.00,,OVC065,0.00,VWS V14.01,2013-02-20 08:45:00,
2013-02-20 03:50:00,10.9,5.9,29.95,North,7,11.0,13.0,80,0.00,,OVC065,0.00,VWS V14.01,2013-02-20 08:50:00,
2013-02-20 03:55:00,10.9,5.9,29.95,NNW,339,6.0,12.0,80,0.00,,OVC065,0.00,VWS V14.01,2013-02-20 08:55:00,
2013-02-20 04:00:00,10.9,5.9,29.95,NNE,21,9.0,11.0,80,0.00,,OVC065,0.00,VWS V14.01,2013-02-20 09:00:00,
2013-02-20 04:05:00,10.9,6.2,29.96,North,350,7.0,10.0,81,0.00,,OVC030,0.00,VWS V14.01,2013-02-20 09:05:00,
2013-02-20 04:10:00,10.9,5.9,29.96,NNW,344,4.0,5.0,80,0.00,,OVC030,0.00,VWS V14.01,2013-02-20 09:10:00,
2013-02-20 04:15:00,10.9,5.9,29.96,NW,325,12.0,17.0,80,0.00,,OVC030,0.00,VWS V14.01,2013-02-20 09:15:00,
2013-02-20 04:20:00,10.9,5.9,29.96,North,357,7.0,8.0,80,0.00,,OVC030,0.00,VWS V14.01,2013-02-20 09:20:00,
2013-02-20 04:25:00,10.8,5.9,29.97,North,357,8.0,11.0,80,0.00,,OVC030,0.00,VWS V14.01,2013-02-20 09:25:00,
2013-02-20 04:30:00,10.8,5.9,29.97,NW,319,8.0,8.0,80,0.00,,OVC030,0.00,VWS V14.01,2013-02-20 09:30:00,
2013-02-20 04:35:00,10.8,5.9,29.97,North,357,11.0,13.0,80,0.00,,OVC030,0.00,VWS V14.01,2013-02-20 09:35:00,
2013-02-20 04:40:00,10.8,5.6,29.98,NW,315,14.0,16.0,79,0.00,,OVC030,0.00,VWS V14.01,2013-02-20 09:40:00,
2013-02-20 04:45:00,10.7,5.8,29.97,NNE,16,9.0,11.0,80,0.00,,OVC030,0.00,VWS V14.01,2013-02-20 09:45:00,
2013-02-20 04:50:00,10.7,5.5,29.97,NNE,12,8.0,15.0,79,0.00,,OVC030,0.00,VWS V14.01,2013-02-20 09:50:00,
2013-02-20 04:55:00,10.6,5.4,29.98,NNW,328,7.0,15.0,79,0.00,,OVC030,0.00,VWS V14.01,2013-02-20 09:55:00,
2013-02-20 05:00:00,10.5,5.3,29.98,North,7,9.0,14.0,79,0.00,,OVC030,0.00,VWS V14.01,2013-02-20 10:00:00,
2013-02-20 05:05:00,10.5,5.0,29.99,North,351,12.0,13.0,78,0.00,,,0.00,VWS V14.01,2013-02-20 10:05:00,
2013-02-20 05:10:00,10.4,4.9,29.99,NW,317,6.0,13.0,78,0.00,,,0.00,VWS V14.01,2013-02-20 10:10:00,
2013-02-20 05:15:00,10.3,4.5,29.99,North,351,7.0,12.0,77,0.00,,,0.00,VWS V14.01,2013-02-20 10:15:00,
2013-02-20 05:20:00,10.3,4.5,30.00,North,350,7.0,10.0,77,0.00,,,0.00,VWS V14.01,2013-02-20 10:20:00,
2013-02-20 05:25:00,10.2,4.2,30.00,NNE,15,9.0,14.0,76,0.00,,,0.00,VWS V14.01,2013-02-20 10:25:00,
2013-02-20 05:30:00,10.0,4.0,30.00,NNW,337,10.0,14.0,76,0.00,,,0.00,VWS V14.01,2013-02-20 10:30:00,
2013-02-20 05:35:00,9.9,3.9,30.00,NNW,348,9.0,13.0,76,0.00,,,0.00,VWS V14.01,2013-02-20 10:35:00,
2013-02-20 05:40:00,9.8,3.8,30.01,North,7,8.0,12.0,76,0.00,,,0.00,VWS V14.01,2013-02-20 10:40:00,
2013-02-20 05:45:00,9.7,3.7,30.01,North,2,11.0,17.0,76,0.00,,,0.00,VWS V14.01,2013-02-20 10:45:00,
2013-02-20 05:50:00,9.7,4.0,30.01,NNW,335,11.0,13.0,77,0.00,,,0.00,VWS V14.01,2013-02-20 10:50:00,
2013-02-20 05:55:00,9.7,4.0,30.02,NNE,13,7.0,11.0,77,0.00,,,0.00,VWS V14.01,2013-02-20 10:55:00,
2013-02-20 06:00:00,9.7,4.0,30.02,North,357,12.0,15.0,77,0.00,,,0.00,VWS V14.01,2013-02-20 11:00:00,
2013-02-20 06:05:00,9.7,4.2,30.03,NNE,15,7.0,13.0,78,0.00,,OVC044,0.00,VWS V14.01,2013-02-20 11:05:00,
2013-02-20 06:10:00,9.7,4.2,30.03,North,357,9.0,10.0,78,0.00,,OVC044,0.00,VWS V14.01,2013-02-20 11:10:00,
2013-02-20 06:15:00,9.7,4.2,30.03,NW,326,8.0,8.0,78,0.00,,OVC044,0.00,VWS V14.01,2013-02-20 11:15:00,
2013-02-20 06:20:00,9.7,4.2,30.03,North,7,10.0,10.0,78,0.00,,OVC044,0.00,VWS V14.01,2013-02-20 11:20:00,
2013-02-20 06:25:00,9.6,4.1,30.03,North,7,10.0,11.0,78,0.00,,OVC044,0.00,VWS V14.01,2013-02-20 11:25:00,
2013-02-20 06:31:00,9.6,4.1,30.04,NNW,342,6.0,8.0,78,0.00,,OVC044,0.00,VWS V14.01,2013-02-20 11:31:00,
2013-02-20 06:36:00,9.5,4.0,30.04,North,351,15.0,20.0,78,0.00,,OVC034,0.00,VWS V14.01,2013-02-20 11:36:00,
2013-02-20 06:41:00,9.5,4.0,30.04,NNW,342,7.0,9.0,78,0.00,,OVC034,0.00,VWS V14.01,2013-02-20 11:41:00,
2013-02-20 06:46:00,9.5,4.3,30.05,North,357,6.0,15.0,79,0.00,,OVC034,0.00,VWS V14.01,2013-02-20 11:46:00,
2013-02-20 06:51:00,9.5,4.0,30.05,North,357,11.0,11.0,78,0.00,,OVC034,0.00,VWS V14.01,2013-02-20 11:51:00,
2013-02-20 06:56:00,9.5,4.0,30.06,North,7,10.0,13.0,78,0.00,,OVC034,0.00,VWS V14.01,2013-02-20 11:56:00,
2013-02-20 07:01:00,9.4,3.9,30.06,NNE,20,10.0,11.0,78,0.00,,OVC034,0.00,VWS V14.01,2013-02-20 12:01:00,
2013-02-20 07:06:00,9.3,4.1,30.06,North,357,6.0,10.0,79,0.00,,OVC025,0.00,VWS V14.01,2013-02-20 12:06:00,
2013-02-20 07:11:00,9.4,4.2,30.06,NNE,22,12.0,15.0,79,0.00,,OVC025,0.00,VWS V14.01,2013-02-20 12:11:00,
2013-02-20 07:16:00,9.4,4.2,30.06,NNE,15,9.0,13.0,79,0.00,,OVC025,0.00,VWS V14.01,2013-02-20 12:16:00,
2013-02-20 07:21:00,9.4,4.2,30.07,North,2,10.0,14.0,79,0.00,,OVC025,0.00,VWS V14.01,2013-02-20 12:21:00,
2013-02-20 07:26:00,9.4,4.2,30.07,NNE,25,9.0,10.0,79,0.00,,OVC025,0.00,VWS V14.01,2013-02-20 12:26:00,
2013-02-20 07:31:00,9.4,4.2,30.07,NNW,340,4.0,13.0,79,0.00,,OVC025,0.00,VWS V14.01,2013-02-20 12:31:00,
2013-02-20 07:36:00,9.4,3.9,30.07,North,2,9.0,11.0,78,0.00,,OVC025,0.00,VWS V14.01,2013-02-20 12:36:00,
2013-02-20 07:41:00,9.4,3.9,30.07,NW,317,5.0,7.0,78,0.00,,OVC025,0.00,VWS V14.01,2013-02-20 12:41:00,
2013-02-20 07:46:00,9.4,3.9,30.07,NNE,24,10.0,14.0,78,0.00,,OVC025,0.00,VWS V14.01,2013-02-20 12:46:00,
2013-02-20 07:51:00,9.4,4.2,30.08,North,2,9.0,9.0,79,0.00,,OVC025,0.00,VWS V14.01,2013-02-20 12:51:00,
2013-02-20 07:56:00,9.4,4.2,30.08,NNE,26,5.0,11.0,79,0.00,,OVC025,0.00,VWS V14.01,2013-02-20 12:56:00,
2013-02-20 08:01:00,9.4,4.2,30.09,NNW,338,10.0,16.0,79,0.00,,OVC025,0.00,VWS V14.01,2013-02-20 13:01:00,
2013-02-20 08:06:00,9.4,4.2,30.09,North,2,6.0,20.0,79,0.00,,,0.00,VWS V14.01,2013-02-20 13:06:00,
2013-02-20 08:11:00,9.4,3.9,30.09,NW,325,6.0,13.0,78,0.00,,,0.00,VWS V14.01,2013-02-20 13:11:00,
2013-02-20 08:16:00,9.5,4.0,30.09,NNW,333,14.0,14.0,78,0.00,,,0.00,VWS V14.01,2013-02-20 13:16:00,
2013-02-20 08:21:00,9.5,4.0,30.09,NW,324,9.0,14.0,78,0.00,,,0.00,VWS V14.01,2013-02-20 13:21:00,
2013-02-20 08:26:00,9.5,4.0,30.09,NNW,340,11.0,11.0,78,0.00,,,0.00,VWS V14.01,2013-02-20 13:26:00,
2013-02-20 08:31:00,9.5,4.0,30.10,NNW,343,9.0,12.0,78,0.00,,,0.00,VWS V14.01,2013-02-20 13:31:00,
2013-02-20 08:36:00,9.6,3.8,30.11,NNW,346,5.0,9.0,77,0.00,,,0.00,VWS V14.01,2013-02-20 13:36:00,
2013-02-20 08:41:00,9.6,3.8,30.11,NNW,336,6.0,9.0,77,0.00,,,0.00,VWS V14.01,2013-02-20 13:41:00,
2013-02-20 08:46:00,9.7,4.0,30.11,North,353,8.0,8.0,77,0.00,,,0.00,VWS V14.01,2013-02-20 13:46:00,
2013-02-20 08:51:00,9.7,4.2,30.11,NNW,346,6.0,7.0,78,0.00,,,0.00,VWS V14.01,2013-02-20 13:51:00,
2013-02-20 08:56:00,9.8,4.3,30.12,North,353,4.0,9.0,78,0.00,,,0.00,VWS V14.01,2013-02-20 13:56:00,
2013-02-20 09:01:00,9.9,4.4,30.12,North,357,7.0,10.0,78,0.00,,,0.00,VWS V14.01,2013-02-20 14:01:00,
2013-02-20 09:06:00,10.0,4.5,30.12,NW,323,6.0,8.0,78,0.00,,OVC025,0.00,VWS V14.01,2013-02-20 14:06:00,
2013-02-20 09:11:00,10.0,4.2,30.12,NE,43,8.0,16.0,77,0.00,,OVC025,0.00,VWS V14.01,2013-02-20 14:11:00,
2013-02-20 09:16:00,10.0,4.2,30.12,NNW,342,6.0,14.0,77,0.00,,OVC025,0.00,VWS V14.01,2013-02-20 14:16:00,
2013-02-20 09:21:00,10.1,4.3,30.12,North,357,5.0,13.0,77,0.00,,OVC025,0.00,VWS V14.01,2013-02-20 14:21:00,
2013-02-20 09:26:00,10.1,4.3,30.12,NNW,348,7.0,13.0,77,0.00,,OVC025,0.00,VWS V14.01,2013-02-20 14:26:00,
2013-02-20 09:31:00,10.0,4.2,30.12,NNW,344,10.0,12.0,77,0.00,,OVC025,0.00,VWS V14.01,2013-02-20 14:31:00,
2013-02-20 09:36:00,10.0,4.2,30.13,North,7,11.0,13.0,77,0.00,,OVC025,0.00,VWS V14.01,2013-02-20 14:36:00,
2013-02-20 09:41:00,10.0,4.2,30.12,North,357,8.0,8.0,77,0.00,,OVC025,0.00,VWS V14.01,2013-02-20 14:41:00,
2013-02-20 09:46:00,10.0,4.2,30.12,North,2,6.0,21.0,77,0.00,,OVC025,0.00,VWS V14.01,2013-02-20 14:46:00,
2013-02-20 09:51:00,10.1,4.6,30.12,North,357,7.0,9.0,78,0.00,,OVC025,0.00,VWS V14.01,2013-02-20 14:51:00,
2013-02-20 09:56:00,10.1,4.3,30.12,North,350,13.0,14.0,77,0.00,,OVC025,0.00,VWS V14.01,2013-02-20 14:56:00,
2013-02-20 10:01:00,10.3,4.8,30.13,NNW,342,8.0,13.0,78,0.00,,OVC025,0.00,VWS V14.01,2013-02-20 15:01:00,
2013-02-20 10:06:00,10.4,4.3,30.13,NNW,346,10.0,16.0,76,0.00,,,0.00,VWS V14.01,2013-02-20 15:06:00,
2013-02-20 10:11:00,10.5,4.4,30.13,North,357,8.0,14.0,76,0.00,,,0.00,VWS V14.01,2013-02-20 15:11:00,
2013-02-20 10:16:00,10.7,4.6,30.14,North,352,7.0,10.0,76,0.00,,,0.00,VWS V14.01,2013-02-20 15:16:00,
2013-02-20 10:21:00,10.8,4.7,30.14,NNW,345,7.0,8.0,76,0.00,,,0.00,VWS V14.01,2013-02-20 15:21:00,
2013-02-20 10:26:00,10.8,4.7,30.14,NNW,332,11.0,12.0,76,0.00,,,0.00,VWS V14.01,2013-02-20 15:26:00,
2013-02-20 10:32:00,10.7,4.9,30.15,North,357,10.0,11.0,77,0.00,,,0.00,VWS V14.01,2013-02-20 15:32:00,
2013-02-20 10:36:00,10.7,4.9,30.15,North,11,4.0,7.0,77,0.00,,,0.00,VWS V14.01,2013-02-20 15:36:00,
2013-02-20 10:42:00,10.8,5.6,30.15,North,357,11.0,11.0,79,0.00,,,0.00,VWS V14.01,2013-02-20 15:42:00,
2013-02-20 10:47:00,10.9,4.8,30.15,NNW,341,8.0,10.0,76,0.00,,,0.00,VWS V14.01,2013-02-20 15:47:00,
2013-02-20 10:52:00,11.0,5.2,30.15,NNW,339,17.0,17.0,77,0.00,,,0.00,VWS V14.01,2013-02-20 15:52:00,
2013-02-20 10:57:00,10.7,5.2,30.15,NNW,342,6.0,11.0,78,0.00,,,0.00,VWS V14.01,2013-02-20 15:57:00,
2013-02-20 11:02:00,10.8,5.6,30.15,NNE,12,11.0,13.0,79,0.00,,,0.00,VWS V14.01,2013-02-20 16:02:00,
2013-02-20 11:07:00,10.8,5.9,30.16,NW,324,10.0,17.0,80,0.00,,,0.00,VWS V14.01,2013-02-20 16:07:00,
2013-02-20 11:12:00,10.7,5.5,30.16,NNE,15,14.0,16.0,79,0.00,,,0.00,VWS V14.01,2013-02-20 16:12:00,
2013-02-20 11:17:00,10.7,4.9,30.16,North,7,10.0,14.0,77,0.00,,,0.00,VWS V14.01,2013-02-20 16:17:00,
2013-02-20 11:22:00,10.9,5.1,30.16,NNE,32,6.0,13.0,77,0.00,,,0.00,VWS V14.01,2013-02-20 16:22:00,
2013-02-20 11:27:00,10.8,4.7,30.16,NNW,343,11.0,11.0,76,0.00,,,0.00,VWS V14.01,2013-02-20 16:27:00,
2013-02-20 11:32:00,10.9,4.8,30.16,North,2,5.0,12.0,76,0.00,,,0.00,VWS V14.01,2013-02-20 16:32:00,
2013-02-20 11:37:00,11.1,5.0,30.16,NNW,327,10.0,13.0,76,0.00,,,0.00,VWS V14.01,2013-02-20 16:37:00,
2013-02-20 11:42:00,11.2,4.8,30.16,North,350,9.0,11.0,75,0.00,,,0.00,VWS V14.01,2013-02-20 16:42:00,
2013-02-20 11:47:00,11.3,4.6,30.16,NW,310,9.0,17.0,74,0.00,,,0.00,VWS V14.01,2013-02-20 16:47:00,
2013-02-20 11:52:00,11.3,4.9,30.16,NNW,332,8.0,10.0,75,0.00,,OVC023,0.00,VWS V14.01,2013-02-20 16:52:00,
2013-02-20 11:57:00,11.4,5.0,30.16,North,357,8.0,15.0,75,0.00,,OVC023,0.00,VWS V14.01,2013-02-20 16:57:00,
2013-02-20 12:02:00,11.5,5.1,30.16,North,11,11.0,19.0,75,0.00,,OVC023,0.00,VWS V14.01,2013-02-20 17:02:00,
2013-02-20 12:07:00,11.6,4.9,30.16,NNW,342,10.0,11.0,74,0.00,,,0.00,VWS V14.01,2013-02-20 17:07:00,
2013-02-20 12:12:00,11.4,4.4,30.17,NNE,18,8.0,12.0,73,0.00,,,0.00,VWS V14.01,2013-02-20 17:12:00,
2013-02-20 12:17:00,11.4,4.4,30.17,North,2,9.0,18.0,73,0.00,,,0.00,VWS V14.01,2013-02-20 17:17:00,
2013-02-20 12:22:00,11.6,4.9,30.17,NNW,345,8.0,21.0,74,0.00,,,0.00,VWS V14.01,2013-02-20 17:22:00,
2013-02-20 12:27:00,11.8,5.1,30.17,NNE,13,10.0,10.0,74,0.00,,,0.00,VWS V14.01,2013-02-20 17:27:00,
2013-02-20 12:32:00,11.8,5.1,30.17,North,352,6.0,12.0,74,0.00,,,0.00,VWS V14.01,2013-02-20 17:32:00,
2013-02-20 12:37:00,12.2,5.2,30.17,North,7,14.0,14.0,73,0.00,,,0.00,VWS V14.01,2013-02-20 17:37:00,
2013-02-20 12:42:00,12.2,4.9,30.17,NNW,334,12.0,12.0,72,0.00,,,0.00,VWS V14.01,2013-02-20 17:42:00,
2013-02-20 12:47:00,12.2,5.5,30.17,NNW,335,9.0,15.0,74,0.00,,,0.00,VWS V14.01,2013-02-20 17:47:00,
2013-02-20 12:52:00,12.3,5.6,30.17,NNE,22,7.0,10.0,74,0.00,,,0.00,VWS V14.01,2013-02-20 17:52:00,
2013-02-20 12:57:00,12.7,5.7,30.17,North,7,13.0,15.0,73,0.00,,,0.00,VWS V14.01,2013-02-20 17:57:00,
2013-02-20 13:02:00,12.6,5.6,30.17,North,2,8.0,12.0,73,0.00,,,0.00,VWS V14.01,2013-02-20 18:02:00,
2013-02-20 13:07:00,12.5,5.5,30.17,NNW,340,8.0,13.0,73,0.00,,OVC023,0.00,VWS V14.01,2013-02-20 18:07:00,
2013-02-20 13:12:00,12.6,6.2,30.17,North,7,7.0,15.0,75,0.00,,OVC023,0.00,VWS V14.01,2013-02-20 18:12:00,
2013-02-20 13:17:00,12.2,5.8,30.17,North,7,9.0,14.0,75,0.00,,OVC023,0.00,VWS V14.01,2013-02-20 18:17:00,
2013-02-20 13:22:00,12.6,6.2,30.17,NE,42,4.0,13.0,75,0.00,,OVC023,0.00,VWS V14.01,2013-02-20 18:22:00,
2013-02-20 13:27:00,13.0,6.6,30.17,NNW,335,6.0,11.0,75,0.00,,OVC023,0.00,VWS V14.01,2013-02-20 18:27:00,
2013-02-20 13:32:00,12.8,5.8,30.17,NW,315,6.0,9.0,73,0.00,,OVC023,0.00,VWS V14.01,2013-02-20 18:32:00,
2013-02-20 13:37:00,12.7,6.0,30.17,NW,323,10.0,11.0,74,0.00,,OVC023,0.00,VWS V14.01,2013-02-20 18:37:00,
2013-02-20 13:42:00,12.7,6.0,30.17,North,357,11.0,13.0,74,0.00,,OVC023,0.00,VWS V14.01,2013-02-20 18:42:00,
2013-02-20 13:47:00,12.7,6.0,30.17,NW,319,9.0,12.0,74,0.00,,OVC023,0.00,VWS V14.01,2013-02-20 18:47:00,
2013-02-20 13:52:00,12.6,6.5,30.17,North,351,6.0,7.0,76,0.00,,OVC023,0.00,VWS V14.01,2013-02-20 18:52:00,
2013-02-20 13:57:00,12.9,7.1,30.17,NW,311,9.0,9.0,77,0.00,,OVC023,0.00,VWS V14.01,2013-02-20 18:57:00,
2013-02-20 14:02:00,12.8,7.0,30.17,NW,311,13.0,14.0,77,0.00,,OVC023,0.00,VWS V14.01,2013-02-20 19:02:00,
2013-02-20 14:07:00,13.1,7.3,30.17,North,7,7.0,11.0,77,0.00,,OVC023,0.00,VWS V14.01,2013-02-20 19:07:00,
2013-02-20 14:13:00,13.0,7.2,30.17,North,349,9.0,15.0,77,0.00,,OVC023,0.00,VWS V14.01,2013-02-20 19:13:00,
2013-02-20 14:18:00,12.9,6.8,30.17,NW,317,5.0,8.0,76,0.00,,OVC023,0.00,VWS V14.01,2013-02-20 19:18:00,
2013-02-20 14:23:00,13.1,6.7,30.17,NW,324,10.0,16.0,75,0.00,,OVC023,0.00,VWS V14.01,2013-02-20 19:23:00,
2013-02-20 14:28:00,13.0,6.9,30.17,NW,323,6.0,8.0,76,0.00,,OVC023,0.00,VWS V14.01,2013-02-20 19:28:00,
2013-02-20 14:33:00,13.0,6.6,30.17,NW,326,12.0,15.0,75,0.00,,OVC023,0.00,VWS V14.01,2013-02-20 19:33:00,
2013-02-20 14:38:00,12.8,6.7,30.17,NNE,14,10.0,11.0,76,0.00,,OVC023,0.00,VWS V14.01,2013-02-20 19:38:00,
2013-02-20 14:43:00,12.8,7.0,30.18,North,351,10.0,16.0,77,0.00,,OVC023,0.00,VWS V14.01,2013-02-20 19:43:00,
2013-02-20 14:48:00,12.8,7.2,30.18,North,357,6.0,9.0,78,0.00,,OVC023,0.00,VWS V14.01,2013-02-20 19:48:00,
2013-02-20 14:53:00,13.1,7.3,30.18,North,353,9.0,10.0,77,0.00,,OVC023,0.00,VWS V14.01,2013-02-20 19:53:00,
2013-02-20 14:58:00,13.1,7.3,30.18,North,352,13.0,14.0,77,0.00,,OVC023,0.00,VWS V14.01,2013-02-20 19:58:00,
2013-02-20 15:03:00,13.1,7.5,30.19,NW,308,7.0,9.0,78,0.00,,OVC023,0.00,VWS V14.01,2013-02-20 20:03:00,
2013-02-20 15:08:00,13.2,7.6,30.19,North,352,5.0,12.0,78,0.00,,OVC023,0.00,VWS V14.01,2013-02-20 20:08:00,
2013-02-20 15:13:00,13.0,7.4,30.19,NNE,20,5.0,10.0,78,0.00,,OVC023,0.00,VWS V14.01,2013-02-20 20:13:00,
2013-02-20 15:18:00,13.0,8.0,30.19,NW,320,5.0,8.0,80,0.00,,OVC023,0.00,VWS V14.01,2013-02-20 20:18:00,
2013-02-20 15:23:00,13.0,7.7,30.19,NNW,329,8.0,11.0,79,0.00,,OVC023,0.00,VWS V14.01,2013-02-20 20:23:00,
2013-02-20 15:28:00,13.0,7.4,30.19,NW,317,3.0,8.0,78,0.00,,OVC023,0.00,VWS V14.01,2013-02-20 20:28:00,
2013-02-20 15:33:00,13.1,7.0,30.20,NNW,333,13.0,14.0,76,0.00,,OVC023,0.00,VWS V14.01,2013-02-20 20:33:00,
2013-02-20 15:38:00,13.1,7.0,30.20,NW,318,10.0,11.0,76,0.00,,OVC023,0.00,VWS V14.01,2013-02-20 20:38:00,
2013-02-20 15:43:00,13.1,7.0,30.20,NW,308,7.0,15.0,76,0.00,,OVC023,0.00,VWS V14.01,2013-02-20 20:43:00,
2013-02-20 15:48:00,13.0,7.4,30.20,North,357,8.0,11.0,78,0.00,,OVC023,0.00,VWS V14.01,2013-02-20 20:48:00,
2013-02-20 15:53:00,13.1,7.5,30.21,NW,319,10.0,13.0,78,0.00,,OVC023,0.00,VWS V14.01,2013-02-20 20:53:00,
2013-02-20 15:58:00,13.0,7.2,30.21,NW,319,5.0,10.0,77,0.00,,OVC023,0.00,VWS V14.01,2013-02-20 20:58:00,
2013-02-20 16:03:00,13.0,7.2,30.21,NNW,341,8.0,12.0,77,0.00,,OVC023,0.00,VWS V14.01,2013-02-20 21:03:00,
2013-02-20 16:08:00,13.0,7.4,30.21,North,353,8.0,8.0,78,0.00,,OVC023,0.00,VWS V14.01,2013-02-20 21:08:00,
2013-02-20 16:13:00,13.1,7.8,30.21,NW,317,6.0,11.0,79,0.00,,OVC023,0.00,VWS V14.01,2013-02-20 21:13:00,
2013-02-20 16:18:00,13.0,7.4,30.22,NW,321,9.0,9.0,78,0.00,,OVC023,0.00,VWS V14.01,2013-02-20 21:18:00,
2013-02-20 16:23:00,13.0,7.7,30.22,NNW,338,9.0,10.0,79,0.00,,OVC023,0.00,VWS V14.01,2013-02-20 21:23:00,
2013-02-20 16:28:00,13.1,7.8,30.22,North,351,5.0,12.0,79,0.00,,OVC023,0.00,VWS V14.01,2013-02-20 21:28:00,
2013-02-20 16:33:00,13.0,7.7,30.22,North,357,8.0,9.0,79,0.00,,OVC023,0.00,VWS V14.01,2013-02-20 21:33:00,
2013-02-20 16:38:00,13.1,8.1,30.22,NW,318,12.0,12.0,80,0.00,,OVC021,0.00,VWS V14.01,2013-02-20 21:38:00,
2013-02-20 16:43:00,13.1,8.1,30.22,North,352,7.0,11.0,80,0.00,,OVC021,0.00,VWS V14.01,2013-02-20 21:43:00,
2013-02-20 16:48:00,13.2,8.2,30.22,NNW,331,9.0,9.0,80,0.00,,OVC021,0.00,VWS V14.01,2013-02-20 21:48:00,
2013-02-20 16:53:00,13.1,8.4,30.22,NNW,344,5.0,9.0,81,0.00,,OVC021,0.00,VWS V14.01,2013-02-20 21:53:00,
2013-02-20 16:58:00,13.0,8.3,30.23,NNW,339,5.0,8.0,81,0.00,,OVC021,0.00,VWS V14.01,2013-02-20 21:58:00,
2013-02-20 17:03:00,13.1,8.4,30.23,NNW,332,4.0,10.0,81,0.00,,OVC021,0.00,VWS V14.01,2013-02-20 22:03:00,
2013-02-20 17:08:00,13.1,8.1,30.23,North,7,9.0,13.0,80,0.00,,OVC021,0.00,VWS V14.01,2013-02-20 22:08:00,
2013-02-20 17:13:00,13.1,8.1,30.23,NW,321,9.0,11.0,80,0.00,,OVC021,0.00,VWS V14.01,2013-02-20 22:13:00,
2013-02-20 17:18:00,13.1,8.4,30.24,North,352,6.0,11.0,81,0.00,,OVC021,0.00,VWS V14.01,2013-02-20 22:18:00,
2013-02-20 17:23:00,13.1,8.4,30.24,NW,312,7.0,12.0,81,0.00,,OVC021,0.00,VWS V14.01,2013-02-20 22:23:00,
2013-02-20 17:28:00,13.0,8.3,30.24,NNW,345,8.0,16.0,81,0.00,,OVC021,0.00,VWS V14.01,2013-02-20 22:28:00,
2013-02-20 17:33:00,13.0,8.3,30.25,North,7,6.0,9.0,81,0.00,,OVC021,0.00,VWS V14.01,2013-02-20 22:33:00,
2013-02-20 17:38:00,13.0,8.3,30.25,North,11,5.0,7.0,81,0.00,,OVC021,0.00,VWS V14.01,2013-02-20 22:38:00,
2013-02-20 17:44:00,13.1,8.4,30.25,North,352,7.0,10.0,81,0.00,,OVC021,0.00,VWS V14.01,2013-02-20 22:44:00,
2013-02-20 17:49:00,13.1,8.4,30.25,North,353,6.0,6.0,81,0.00,,OVC021,0.00,VWS V14.01,2013-02-20 22:49:00,
2013-02-20 17:54:00,13.2,8.8,30.26,NNW,341,4.0,7.0,82,0.00,,OVC021,0.00,VWS V14.01,2013-02-20 22:54:00,
2013-02-20 17:59:00,13.2,8.8,30.26,NNW,334,3.0,8.0,82,0.00,,OVC021,0.00,VWS V14.01,2013-02-20 22:59:00,
2013-02-20 18:04:00,13.3,8.8,30.26,NW,317,4.0,7.0,82,0.00,,OVC021,0.00,VWS V14.01,2013-02-20 23:04:00,
2013-02-20 18:09:00,13.4,9.2,30.27,NW,323,4.0,4.0,83,0.00,,OVC019,0.00,VWS V14.01,2013-02-20 23:09:00,
2013-02-20 18:14:00,13.4,9.2,30.27,NW,325,3.0,6.0,83,0.00,,OVC019,0.00,VWS V14.01,2013-02-20 23:14:00,
2013-02-20 18:19:00,13.6,9.7,30.27,NNW,348,4.0,6.0,84,0.00,,OVC019,0.00,VWS V14.01,2013-02-20 23:19:00,
2013-02-20 18:24:00,13.7,9.8,30.27,NW,311,3.0,4.0,84,0.00,,OVC019,0.00,VWS V14.01,2013-02-20 23:24:00,
2013-02-20 18:29:00,13.9,10.0,30.27,NNW,340,5.0,7.0,84,0.00,,OVC019,0.00,VWS V14.01,2013-02-20 23:29:00,
2013-02-20 18:34:00,14.2,10.3,30.28,NW,324,8.0,10.0,84,0.00,,OVC019,0.00,VWS V14.01,2013-02-20 23:34:00,
2013-02-20 18:39:00,14.4,10.7,30.27,NNW,341,7.0,9.0,85,0.00,,OVC019,0.00,VWS V14.01,2013-02-20 23:39:00,
2013-02-20 18:44:00,14.6,10.9,30.27,NNW,339,3.0,7.0,85,0.00,,OVC019,0.00,VWS V14.01,2013-02-20 23:44:00,
2013-02-20 18:49:00,14.8,11.1,30.27,NNW,327,4.0,5.0,85,0.00,,OVC019,0.00,VWS V14.01,2013-02-20 23:49:00,
2013-02-20 18:54:00,14.9,11.2,30.27,NNW,337,6.0,6.0,85,0.00,,OVC019,0.00,VWS V14.01,2013-02-20 23:54:00,
2013-02-20 18:59:00,15.0,11.3,30.28,WNW,294,7.0,11.0,85,0.00,,OVC019,0.00,VWS V14.01,2013-02-20 23:59:00,
2013-02-20 19:04:00,15.2,11.5,30.28,NNW,328,9.0,13.0,85,0.00,,OVC019,0.00,VWS V14.01,2013-02-21 00:04:00,
2013-02-20 19:09:00,15.3,11.3,30.29,NW,323,7.0,8.0,84,0.00,,,0.00,VWS V14.01,2013-02-21 00:09:00,
2013-02-20 19:14:00,15.4,11.2,30.28,NNW,348,6.0,9.0,83,0.00,,,0.00,VWS V14.01,2013-02-21 00:14:00,
2013-02-20 19:19:00,15.5,11.3,30.28,NNW,342,6.0,11.0,83,0.00,,,0.00,VWS V14.01,2013-02-21 00:19:00,
2013-02-20 19:24:00,15.5,11.3,30.29,North,357,7.0,10.0,83,0.00,,,0.00,VWS V14.01,2013-02-21 00:24:00,
2013-02-20 19:29:00,15.6,11.4,30.29,NNW,328,5.0,7.0,83,0.00,,,0.00,VWS V14.01,2013-02-21 00:29:00,
2013-02-20 19:34:00,15.7,11.5,30.29,North,7,12.0,12.0,83,0.00,,,0.00,VWS V14.01,2013-02-21 00:34:00,
2013-02-20 19:39:00,15.8,11.6,30.29,NNW,329,6.0,9.0,83,0.00,,,0.00,VWS V14.01,2013-02-21 00:39:00,
2013-02-20 19:44:00,15.9,11.7,30.29,North,7,8.0,10.0,83,0.00,,,0.00,VWS V14.01,2013-02-21 00:44:00,
2013-02-20 19:49:00,15.9,11.7,30.29,North,350,8.0,12.0,83,0.00,,,0.00,VWS V14.01,2013-02-21 00:49:00,
2013-02-20 19:54:00,16.0,11.8,30.29,NNW,343,10.0,13.0,83,0.00,,,0.00,VWS V14.01,2013-02-21 00:54:00,
2013-02-20 19:59:00,16.0,11.8,30.29,NNW,331,10.0,11.0,83,0.00,,,0.00,VWS V14.01,2013-02-21 00:59:00,
2013-02-20 20:04:00,16.0,12.0,30.29,North,357,7.0,12.0,84,0.00,,,0.00,VWS V14.01,2013-02-21 01:04:00,
2013-02-20 20:09:00,16.0,12.0,30.29,North,349,7.0,8.0,84,0.00,,,0.00,VWS V14.01,2013-02-21 01:09:00,
2013-02-20 20:14:00,16.1,12.1,30.29,NNW,330,11.0,13.0,84,0.00,,,0.00,VWS V14.01,2013-02-21 01:14:00,
2013-02-20 20:19:00,16.1,11.9,30.29,NNW,332,10.0,12.0,83,0.00,,,0.00,VWS V14.01,2013-02-21 01:19:00,
2013-02-20 20:24:00,16.2,12.0,30.29,NNW,340,7.0,12.0,83,0.00,,,0.00,VWS V14.01,2013-02-21 01:24:00,
2013-02-20 20:29:00,16.2,12.0,30.29,NNW,332,6.0,10.0,83,0.00,,,0.00,VWS V14.01,2013-02-21 01:29:00,
2013-02-20 20:34:00,16.2,12.0,30.29,NNW,329,12.0,12.0,83,0.00,,,0.00,VWS V14.01,2013-02-21 01:34:00,
2013-02-20 20:39:00,16.3,12.1,30.29,North,7,4.0,6.0,83,0.00,,,0.00,VWS V14.01,2013-02-21 01:39:00,
2013-02-20 20:44:00,16.3,12.3,30.29,North,357,5.0,8.0,84,0.00,,,0.00,VWS V14.01,2013-02-21 01:44:00,
2013-02-20 20:49:00,16.3,12.1,30.29,NNW,342,10.0,10.0,83,0.00,,,0.00,VWS V14.01,2013-02-21 01:49:00,
2013-02-20 20:54:00,16.3,12.1,30.29,NNE,29,8.0,8.0,83,0.00,,,0.00,VWS V14.01,2013-02-21 01:54:00,
2013-02-20 20:59:00,16.3,12.1,30.29,North,11,8.0,9.0,83,0.00,,,0.00,VWS V14.01,2013-02-21 01:59:00,
2013-02-20 21:04:00,16.2,12.0,30.30,NNE,22,10.0,11.0,83,0.00,,OVC021,0.00,VWS V14.01,2013-02-21 02:04:00,
2013-02-20 21:09:00,16.2,12.0,30.30,North,2,7.0,10.0,83,0.00,,OVC021,0.00,VWS V14.01,2013-02-21 02:09:00,
2013-02-20 21:14:00,16.1,11.9,30.30,NNE,29,6.0,7.0,83,0.00,,OVC021,0.00,VWS V14.01,2013-02-21 02:14:00,
2013-02-20 21:19:00,16.0,11.8,30.30,North,349,3.0,8.0,83,0.00,,OVC021,0.00,VWS V14.01,2013-02-21 02:19:00,
2013-02-20 21:24:00,15.9,11.7,30.30,NNE,25,6.0,7.0,83,0.00,,OVC021,0.00,VWS V14.01,2013-02-21 02:24:00,
2013-02-20 21:29:00,15.9,11.7,30.30,NNE,28,6.0,8.0,83,0.00,,OVC021,0.00,VWS V14.01,2013-02-21 02:29:00,
2013-02-20 21:34:00,15.8,11.6,30.30,NNE,26,5.0,7.0,83,0.00,,OVC021,0.00,VWS V14.01,2013-02-21 02:34:00,
2013-02-20 21:39:00,15.8,11.6,30.30,North,2,5.0,7.0,83,0.00,,OVC021,0.00,VWS V14.01,2013-02-21 02:39:00,
2013-02-20 21:44:00,15.8,11.6,30.30,NNE,12,6.0,11.0,83,0.00,,OVC021,0.00,VWS V14.01,2013-02-21 02:44:00,
2013-02-20 21:49:00,15.8,11.6,30.31,NNE,20,9.0,11.0,83,0.00,,OVC021,0.00,VWS V14.01,2013-02-21 02:49:00,
2013-02-20 21:54:00,15.8,11.6,30.31,North,352,6.0,9.0,83,0.00,,OVC021,0.00,VWS V14.01,2013-02-21 02:54:00,
2013-02-20 21:59:00,15.7,11.5,30.31,NE,40,7.0,7.0,83,0.00,,OVC021,0.00,VWS V14.01,2013-02-21 02:59:00,
2013-02-20 22:04:00,15.7,11.5,30.31,NNE,13,5.0,5.0,83,0.00,,OVC021,0.00,VWS V14.01,2013-02-21 03:04:00,
2013-02-20 22:09:00,15.6,11.4,30.31,North,357,5.0,6.0,83,0.00,,OVC021,0.00,VWS V14.01,2013-02-21 03:09:00,
2013-02-20 22:14:00,15.6,11.4,30.31,North,7,8.0,13.0,83,0.00,,OVC021,0.00,VWS V14.01,2013-02-21 03:14:00,
2013-02-20 22:19:00,15.6,11.4,30.31,NNE,13,7.0,11.0,83,0.00,,OVC021,0.00,VWS V14.01,2013-02-21 03:19:00,
2013-02-20 22:24:00,15.5,11.3,30.31,NNE,24,6.0,12.0,83,0.00,,OVC021,0.00,VWS V14.01,2013-02-21 03:24:00,
2013-02-20 22:29:00,15.5,11.3,30.32,North,7,7.0,8.0,83,0.00,,OVC021,0.00,VWS V14.01,2013-02-21 03:29:00,
2013-02-20 22:34:00,15.4,11.2,30.32,North,357,6.0,9.0,83,0.00,,OVC021,0.00,VWS V14.01,2013-02-21 03:34:00,
2013-02-20 22:39:00,15.3,11.1,30.32,North,352,5.0,8.0,83,0.00,,OVC021,0.00,VWS V14.01,2013-02-21 03:39:00,
2013-02-20 22:44:00,15.3,11.1,30.32,North,11,2.0,4.0,83,0.00,,OVC021,0.00,VWS V14.01,2013-02-21 03:44:00,
2013-02-20 22:49:00,15.2,11.2,30.32,NNE,24,6.0,7.0,84,0.00,,OVC021,0.00,VWS V14.01,2013-02-21 03:49:00,
2013-02-20 22:54:00,15.1,11.1,30.32,North,357,6.0,10.0,84,0.00,,OVC021,0.00,VWS V14.01,2013-02-21 03:54:00,
2013-02-20 23:00:00,15.1,11.1,30.32,NNE,13,7.0,8.0,84,0.00,,OVC021,0.00,VWS V14.01,2013-02-21 04:00:00,
2013-02-20 23:05:00,15.1,10.9,30.32,NNE,31,8.0,9.0,83,0.00,,OVC019,0.00,VWS V14.01,2013-02-21 04:05:00,
2013-02-20 23:10:00,15.1,10.9,30.33,North,353,5.0,9.0,83,0.00,,OVC019,0.00,VWS V14.01,2013-02-21 04:10:00,
2013-02-20 23:15:00,15.1,10.9,30.33,NNE,26,6.0,9.0,83,0.00,,OVC019,0.00,VWS V14.01,2013-02-21 04:15:00,
2013-02-20 23:20:00,15.0,11.1,30.33,NNE,29,7.0,8.0,84,0.00,,OVC019,0.00,VWS V14.01,2013-02-21 04:20:00,
2013-02-20 23:25:00,15.0,11.1,30.33,North,350,5.0,7.0,84,0.00,,OVC019,0.00,VWS V14.01,2013-02-21 04:25:00,
2013-02-20 23:30:00,15.0,11.1,30.33,North,2,6.0,6.0,84,0.00,,OVC019,0.00,VWS V14.01,2013-02-21 04:30:00,
2013-02-20 23:35:00,15.0,11.1,30.33,North,2,8.0,10.0,84,0.00,,OVC019,0.00,VWS V14.01,2013-02-21 04:35:00,
2013-02-20 23:40:00,15.0,11.1,30.33,North,357,13.0,13.0,84,0.00,,OVC019,0.00,VWS V14.01,2013-02-21 04:40:00,
2013-02-20 23:45:00,15.0,11.1,30.33,NNE,21,11.0,12.0,84,0.00,,OVC019,0.00,VWS V14.01,2013-02-21 04:45:00,
2013-02-20 23:50:00,14.9,10.9,30.33,NNW,340,8.0,8.0,84,0.00,,OVC019,0.00,VWS V14.01,2013-02-21 04:50:00,
2013-02-20 23:55:00,14.9,10.9,30.33,NE,35,3.0,4.0,84,0.00,,OVC019,0.00,VWS V14.01,2013-02-21 04:55:00,